sensor_id;sensor_type;location;lat;lon;timestamp;temperature;humidity
45096;DHT22;30858;51.108;8.068;2023-05-07T00:01:16;13.40;99.90
45096;DHT22;30858;51.108;8.068;2023-05-07T00:03:42;13.40;99.90
45096;DHT22;30858;51.108;8.068;2023-05-07T00:06:07;13.40;99.90
45096;DHT22;30858;51.108;8.068;2023-05-07T00:08:33;13.40;99.90
45096;DHT22;30858;51.108;8.068;2023-05-07T00:10:58;13.40;99.90
45096;DHT22;30858;51.108;8.068;2023-05-07T00:13:24;13.40;99.90
45096;DHT22;30858;51.108;8.068;2023-05-07T00:15:49;13.40;99.90
45096;DHT22;30858;51.108;8.068;2023-05-07T00:18:15;13.30;99.90
45096;DHT22;30858;51.108;8.068;2023-05-07T00:20:41;13.30;99.90
45096;DHT22;30858;51.108;8.068;2023-05-07T00:23:06;13.30;99.90
45096;DHT22;30858;51.108;8.068;2023-05-07T00:25:32;13.30;99.90
45096;DHT22;30858;51.108;8.068;2023-05-07T00:27:57;13.30;99.90
45096;DHT22;30858;51.108;8.068;2023-05-07T00:30:28;13.30;99.90
45096;DHT22;30858;51.108;8.068;2023-05-07T00:32:53;13.30;99.90
45096;DHT22;30858;51.108;8.068;2023-05-07T00:35:19;13.30;99.90
45096;DHT22;30858;51.108;8.068;2023-05-07T00:37:45;13.30;99.90
45096;DHT22;30858;51.108;8.068;2023-05-07T00:40:10;13.30;99.90
45096;DHT22;30858;51.108;8.068;2023-05-07T00:42:36;13.30;99.90
45096;DHT22;30858;51.108;8.068;2023-05-07T00:45:02;13.30;99.90
45096;DHT22;30858;51.108;8.068;2023-05-07T00:47:28;13.20;99.90
45096;DHT22;30858;51.108;8.068;2023-05-07T00:49:54;13.20;99.90
45096;DHT22;30858;51.108;8.068;2023-05-07T00:52:20;13.10;99.90
45096;DHT22;30858;51.108;8.068;2023-05-07T00:54:47;13.20;99.90
45096;DHT22;30858;51.108;8.068;2023-05-07T00:57:13;13.20;99.90
45096;DHT22;30858;51.108;8.068;2023-05-07T00:59:41;13.20;99.90
45096;DHT22;30858;51.108;8.068;2023-05-07T01:02:07;13.20;99.90
45096;DHT22;30858;51.108;8.068;2023-05-07T01:04:33;13.20;99.90
45096;DHT22;30858;51.108;8.068;2023-05-07T01:06:59;13.20;99.90
45096;DHT22;30858;51.108;8.068;2023-05-07T01:09:25;13.20;99.90
45096;DHT22;30858;51.108;8.068;2023-05-07T01:11:52;13.20;99.90
45096;DHT22;30858;51.108;8.068;2023-05-07T01:14:18;13.20;99.90
45096;DHT22;30858;51.108;8.068;2023-05-07T01:16:44;13.20;99.90
45096;DHT22;30858;51.108;8.068;2023-05-07T01:19:11;13.20;99.90
45096;DHT22;30858;51.108;8.068;2023-05-07T01:21:39;13.20;99.90
45096;DHT22;30858;51.108;8.068;2023-05-07T01:24:10;13.10;99.90
45096;DHT22;30858;51.108;8.068;2023-05-07T01:26:38;13.20;99.90
45096;DHT22;30858;51.108;8.068;2023-05-07T01:29:03;13.20;99.90
45096;DHT22;30858;51.108;8.068;2023-05-07T01:31:29;13.20;99.90
45096;DHT22;30858;51.108;8.068;2023-05-07T01:33:56;13.20;99.90
45096;DHT22;30858;51.108;8.068;2023-05-07T01:36:25;13.10;99.90
45096;DHT22;30858;51.108;8.068;2023-05-07T01:38:52;13.10;99.90
45096;DHT22;30858;51.108;8.068;2023-05-07T01:41:19;13.10;99.90
45096;DHT22;30858;51.108;8.068;2023-05-07T01:43:46;13.10;99.90
45096;DHT22;30858;51.108;8.068;2023-05-07T01:46:12;13.00;99.90
45096;DHT22;30858;51.108;8.068;2023-05-07T01:48:38;13.00;99.90
45096;DHT22;30858;51.108;8.068;2023-05-07T01:51:05;13.00;99.90
45096;DHT22;30858;51.108;8.068;2023-05-07T01:53:36;12.90;99.90
45096;DHT22;30858;51.108;8.068;2023-05-07T01:56:02;12.90;99.90
45096;DHT22;30858;51.108;8.068;2023-05-07T01:58:27;12.90;99.90
45096;DHT22;30858;51.108;8.068;2023-05-07T02:00:53;12.90;99.90
45096;DHT22;30858;51.108;8.068;2023-05-07T02:03:18;12.90;99.90
45096;DHT22;30858;51.108;8.068;2023-05-07T02:05:44;12.90;99.90
45096;DHT22;30858;51.108;8.068;2023-05-07T02:08:09;12.90;99.90
45096;DHT22;30858;51.108;8.068;2023-05-07T02:10:35;12.90;99.90
45096;DHT22;30858;51.108;8.068;2023-05-07T02:13:01;12.90;99.90
45096;DHT22;30858;51.108;8.068;2023-05-07T02:15:27;12.90;99.90
45096;DHT22;30858;51.108;8.068;2023-05-07T02:18:04;12.90;99.90
45096;DHT22;30858;51.108;8.068;2023-05-07T02:20:30;12.80;99.90
45096;DHT22;30858;51.108;8.068;2023-05-07T02:22:55;12.90;99.90
45096;DHT22;30858;51.108;8.068;2023-05-07T02:25:21;12.90;99.90
45096;DHT22;30858;51.108;8.068;2023-05-07T02:27:46;12.90;99.90
45096;DHT22;30858;51.108;8.068;2023-05-07T02:30:13;12.90;99.90
45096;DHT22;30858;51.108;8.068;2023-05-07T02:32:38;12.90;99.90
45096;DHT22;30858;51.108;8.068;2023-05-07T02:35:05;13.00;99.90
45096;DHT22;30858;51.108;8.068;2023-05-07T02:37:30;12.90;99.90
45096;DHT22;30858;51.108;8.068;2023-05-07T02:39:56;12.90;99.90
45096;DHT22;30858;51.108;8.068;2023-05-07T02:42:21;12.90;99.90
45096;DHT22;30858;51.108;8.068;2023-05-07T02:44:47;12.90;99.90
45096;DHT22;30858;51.108;8.068;2023-05-07T02:47:14;12.90;99.90
45096;DHT22;30858;51.108;8.068;2023-05-07T02:49:40;12.90;99.90
45096;DHT22;30858;51.108;8.068;2023-05-07T02:52:06;12.90;99.90
45096;DHT22;30858;51.108;8.068;2023-05-07T02:54:31;12.90;99.90
45096;DHT22;30858;51.108;8.068;2023-05-07T02:56:57;12.90;99.90
45096;DHT22;30858;51.108;8.068;2023-05-07T02:59:23;12.80;99.90
45096;DHT22;30858;51.108;8.068;2023-05-07T03:01:49;12.80;99.90
45096;DHT22;30858;51.108;8.068;2023-05-07T03:04:15;12.70;99.90
45096;DHT22;30858;51.108;8.068;2023-05-07T03:06:40;12.70;99.90
45096;DHT22;30858;51.108;8.068;2023-05-07T03:09:06;12.70;99.90
45096;DHT22;30858;51.108;8.068;2023-05-07T03:11:32;12.70;99.90
45096;DHT22;30858;51.108;8.068;2023-05-07T03:13:57;12.70;99.90
45096;DHT22;30858;51.108;8.068;2023-05-07T03:16:23;12.70;99.90
45096;DHT22;30858;51.108;8.068;2023-05-07T03:18:48;12.70;99.90
45096;DHT22;30858;51.108;8.068;2023-05-07T03:21:14;12.70;99.90
45096;DHT22;30858;51.108;8.068;2023-05-07T03:23:40;12.70;99.90
45096;DHT22;30858;51.108;8.068;2023-05-07T03:26:05;12.70;99.90
45096;DHT22;30858;51.108;8.068;2023-05-07T03:28:31;12.70;99.90
45096;DHT22;30858;51.108;8.068;2023-05-07T03:30:56;12.70;99.90
45096;DHT22;30858;51.108;8.068;2023-05-07T03:33:22;12.70;99.90
45096;DHT22;30858;51.108;8.068;2023-05-07T03:35:47;12.70;99.90
45096;DHT22;30858;51.108;8.068;2023-05-07T03:38:13;12.60;99.90
45096;DHT22;30858;51.108;8.068;2023-05-07T03:40:38;12.60;99.90
45096;DHT22;30858;51.108;8.068;2023-05-07T03:43:04;12.60;99.90
45096;DHT22;30858;51.108;8.068;2023-05-07T03:45:29;12.60;99.90
45096;DHT22;30858;51.108;8.068;2023-05-07T03:47:55;12.60;99.90
45096;DHT22;30858;51.108;8.068;2023-05-07T03:50:20;12.60;99.90
45096;DHT22;30858;51.108;8.068;2023-05-07T03:52:46;12.60;99.90
45096;DHT22;30858;51.108;8.068;2023-05-07T03:55:11;12.60;99.90
45096;DHT22;30858;51.108;8.068;2023-05-07T03:57:37;12.60;99.90
45096;DHT22;30858;51.108;8.068;2023-05-07T04:00:03;12.60;99.90
45096;DHT22;30858;51.108;8.068;2023-05-07T04:02:29;12.60;99.90
45096;DHT22;30858;51.108;8.068;2023-05-07T04:04:55;12.60;99.90
45096;DHT22;30858;51.108;8.068;2023-05-07T04:07:21;12.60;99.90
45096;DHT22;30858;51.108;8.068;2023-05-07T04:09:47;12.60;99.90
45096;DHT22;30858;51.108;8.068;2023-05-07T04:12:12;12.60;99.90
45096;DHT22;30858;51.108;8.068;2023-05-07T04:14:38;12.60;99.90
45096;DHT22;30858;51.108;8.068;2023-05-07T04:17:03;12.60;99.90
45096;DHT22;30858;51.108;8.068;2023-05-07T04:19:29;12.60;99.90
45096;DHT22;30858;51.108;8.068;2023-05-07T04:21:54;12.70;99.90
45096;DHT22;30858;51.108;8.068;2023-05-07T04:24:20;12.70;99.90
45096;DHT22;30858;51.108;8.068;2023-05-07T04:26:45;12.70;99.90
45096;DHT22;30858;51.108;8.068;2023-05-07T04:29:11;12.70;99.90
45096;DHT22;30858;51.108;8.068;2023-05-07T04:31:36;12.70;99.90
45096;DHT22;30858;51.108;8.068;2023-05-07T04:34:02;12.70;99.90
45096;DHT22;30858;51.108;8.068;2023-05-07T04:36:27;12.70;99.90
45096;DHT22;30858;51.108;8.068;2023-05-07T04:38:54;12.80;99.90
45096;DHT22;30858;51.108;8.068;2023-05-07T04:41:19;12.80;99.90
45096;DHT22;30858;51.108;8.068;2023-05-07T04:43:45;12.80;99.90
45096;DHT22;30858;51.108;8.068;2023-05-07T04:46:11;12.80;99.90
45096;DHT22;30858;51.108;8.068;2023-05-07T04:48:36;12.90;99.90
45096;DHT22;30858;51.108;8.068;2023-05-07T04:51:02;12.80;99.90
45096;DHT22;30858;51.108;8.068;2023-05-07T04:53:28;12.90;99.90
45096;DHT22;30858;51.108;8.068;2023-05-07T04:55:57;12.90;99.90
45096;DHT22;30858;51.108;8.068;2023-05-07T04:58:23;13.00;99.90
45096;DHT22;30858;51.108;8.068;2023-05-07T05:00:49;13.00;99.90
45096;DHT22;30858;51.108;8.068;2023-05-07T05:03:14;13.10;99.90
45096;DHT22;30858;51.108;8.068;2023-05-07T05:05:40;13.10;99.90
45096;DHT22;30858;51.108;8.068;2023-05-07T05:08:05;13.10;99.90
45096;DHT22;30858;51.108;8.068;2023-05-07T05:10:31;13.20;99.90
45096;DHT22;30858;51.108;8.068;2023-05-07T05:12:57;13.20;99.90
45096;DHT22;30858;51.108;8.068;2023-05-07T05:15:22;13.20;99.90
45096;DHT22;30858;51.108;8.068;2023-05-07T05:17:48;13.30;99.90
45096;DHT22;30858;51.108;8.068;2023-05-07T05:20:13;13.30;99.90
45096;DHT22;30858;51.108;8.068;2023-05-07T05:22:40;13.40;99.90
45096;DHT22;30858;51.108;8.068;2023-05-07T05:25:05;13.40;99.90
45096;DHT22;30858;51.108;8.068;2023-05-07T05:27:31;13.40;99.90
45096;DHT22;30858;51.108;8.068;2023-05-07T05:29:56;13.40;99.90
45096;DHT22;30858;51.108;8.068;2023-05-07T05:32:22;13.50;99.90
45096;DHT22;30858;51.108;8.068;2023-05-07T05:34:47;13.50;99.90
45096;DHT22;30858;51.108;8.068;2023-05-07T05:37:13;13.70;99.90
45096;DHT22;30858;51.108;8.068;2023-05-07T05:39:38;13.70;99.90
45096;DHT22;30858;51.108;8.068;2023-05-07T05:42:04;13.80;99.90
45096;DHT22;30858;51.108;8.068;2023-05-07T05:44:30;13.80;99.90
45096;DHT22;30858;51.108;8.068;2023-05-07T05:46:55;13.90;99.90
45096;DHT22;30858;51.108;8.068;2023-05-07T05:49:22;14.00;99.90
45096;DHT22;30858;51.108;8.068;2023-05-07T05:51:48;14.00;99.90
45096;DHT22;30858;51.108;8.068;2023-05-07T05:54:13;14.20;99.90
45096;DHT22;30858;51.108;8.068;2023-05-07T05:56:40;14.20;99.90
45096;DHT22;30858;51.108;8.068;2023-05-07T05:59:05;14.30;99.90
45096;DHT22;30858;51.108;8.068;2023-05-07T06:01:31;14.40;99.90
45096;DHT22;30858;51.108;8.068;2023-05-07T06:03:57;14.60;99.90
45096;DHT22;30858;51.108;8.068;2023-05-07T06:06:22;14.70;99.90
45096;DHT22;30858;51.108;8.068;2023-05-07T06:08:48;14.80;99.90
45096;DHT22;30858;51.108;8.068;2023-05-07T06:11:13;14.80;99.90
45096;DHT22;30858;51.108;8.068;2023-05-07T06:13:39;14.90;99.90
45096;DHT22;30858;51.108;8.068;2023-05-07T06:16:05;14.90;99.90
45096;DHT22;30858;51.108;8.068;2023-05-07T06:18:31;15.00;99.90
45096;DHT22;30858;51.108;8.068;2023-05-07T06:20:56;15.10;99.90
45096;DHT22;30858;51.108;8.068;2023-05-07T06:23:21;15.10;99.90
45096;DHT22;30858;51.108;8.068;2023-05-07T06:25:51;15.10;99.90
45096;DHT22;30858;51.108;8.068;2023-05-07T06:28:17;15.10;99.90
45096;DHT22;30858;51.108;8.068;2023-05-07T06:30:42;15.10;99.90
45096;DHT22;30858;51.108;8.068;2023-05-07T06:33:08;15.10;99.90
45096;DHT22;30858;51.108;8.068;2023-05-07T06:35:34;15.20;99.90
45096;DHT22;30858;51.108;8.068;2023-05-07T06:38:00;15.10;99.90
45096;DHT22;30858;51.108;8.068;2023-05-07T06:40:26;15.20;99.90
45096;DHT22;30858;51.108;8.068;2023-05-07T06:42:51;15.30;99.90
45096;DHT22;30858;51.108;8.068;2023-05-07T06:45:17;15.30;99.90
45096;DHT22;30858;51.108;8.068;2023-05-07T06:47:43;15.40;99.90
45096;DHT22;30858;51.108;8.068;2023-05-07T06:50:08;15.70;99.90
45096;DHT22;30858;51.108;8.068;2023-05-07T06:52:35;15.70;99.90
45096;DHT22;30858;51.108;8.068;2023-05-07T06:55:00;16.00;99.90
45096;DHT22;30858;51.108;8.068;2023-05-07T06:57:26;16.20;99.90
45096;DHT22;30858;51.108;8.068;2023-05-07T06:59:51;16.30;99.90
45096;DHT22;30858;51.108;8.068;2023-05-07T07:02:17;16.40;99.90
45096;DHT22;30858;51.108;8.068;2023-05-07T07:04:42;16.50;99.90
45096;DHT22;30858;51.108;8.068;2023-05-07T07:07:08;16.50;99.90
45096;DHT22;30858;51.108;8.068;2023-05-07T07:09:34;16.50;99.90
45096;DHT22;30858;51.108;8.068;2023-05-07T07:11:59;16.50;99.90
45096;DHT22;30858;51.108;8.068;2023-05-07T07:14:25;16.60;99.90
45096;DHT22;30858;51.108;8.068;2023-05-07T07:16:51;16.80;99.90
45096;DHT22;30858;51.108;8.068;2023-05-07T07:19:16;17.00;99.90
45096;DHT22;30858;51.108;8.068;2023-05-07T07:21:42;17.00;99.90
45096;DHT22;30858;51.108;8.068;2023-05-07T07:24:07;17.00;99.90
45096;DHT22;30858;51.108;8.068;2023-05-07T07:26:33;17.40;99.90
45096;DHT22;30858;51.108;8.068;2023-05-07T07:28:58;17.30;99.90
45096;DHT22;30858;51.108;8.068;2023-05-07T07:31:24;17.30;99.90
45096;DHT22;30858;51.108;8.068;2023-05-07T07:33:50;17.10;99.90
45096;DHT22;30858;51.108;8.068;2023-05-07T07:36:15;17.30;99.90
45096;DHT22;30858;51.108;8.068;2023-05-07T07:38:41;17.20;99.90
45096;DHT22;30858;51.108;8.068;2023-05-07T07:41:08;17.20;99.90
45096;DHT22;30858;51.108;8.068;2023-05-07T07:43:33;17.00;99.90
45096;DHT22;30858;51.108;8.068;2023-05-07T07:45:59;17.10;99.90
45096;DHT22;30858;51.108;8.068;2023-05-07T07:48:24;17.20;99.90
45096;DHT22;30858;51.108;8.068;2023-05-07T07:50:50;17.60;99.90
45096;DHT22;30858;51.108;8.068;2023-05-07T07:53:16;17.80;99.90
45096;DHT22;30858;51.108;8.068;2023-05-07T07:55:42;17.80;99.90
45096;DHT22;30858;51.108;8.068;2023-05-07T07:58:08;17.90;99.90
45096;DHT22;30858;51.108;8.068;2023-05-07T08:00:33;17.70;99.90
45096;DHT22;30858;51.108;8.068;2023-05-07T08:02:59;17.90;99.90
45096;DHT22;30858;51.108;8.068;2023-05-07T08:05:24;18.00;99.90
45096;DHT22;30858;51.108;8.068;2023-05-07T08:07:50;18.00;99.90
45096;DHT22;30858;51.108;8.068;2023-05-07T08:10:17;18.20;99.90
45096;DHT22;30858;51.108;8.068;2023-05-07T08:12:49;18.10;99.90
45096;DHT22;30858;51.108;8.068;2023-05-07T08:15:15;18.40;99.90
45096;DHT22;30858;51.108;8.068;2023-05-07T08:17:41;18.40;99.90
45096;DHT22;30858;51.108;8.068;2023-05-07T08:20:08;18.60;99.90
45096;DHT22;30858;51.108;8.068;2023-05-07T08:22:34;18.30;99.90
45096;DHT22;30858;51.108;8.068;2023-05-07T08:25:00;18.40;99.90
45096;DHT22;30858;51.108;8.068;2023-05-07T08:27:26;18.50;99.90
45096;DHT22;30858;51.108;8.068;2023-05-07T08:29:51;18.50;99.90
45096;DHT22;30858;51.108;8.068;2023-05-07T08:32:17;18.80;99.90
45096;DHT22;30858;51.108;8.068;2023-05-07T08:34:42;18.80;99.90
45096;DHT22;30858;51.108;8.068;2023-05-07T08:37:08;18.80;99.90
45096;DHT22;30858;51.108;8.068;2023-05-07T08:39:33;18.90;99.90
45096;DHT22;30858;51.108;8.068;2023-05-07T08:42:01;18.90;99.90
45096;DHT22;30858;51.108;8.068;2023-05-07T08:44:32;19.20;99.90
45096;DHT22;30858;51.108;8.068;2023-05-07T08:47:03;19.50;99.90
45096;DHT22;30858;51.108;8.068;2023-05-07T08:49:31;19.80;99.90
45096;DHT22;30858;51.108;8.068;2023-05-07T08:51:58;19.80;99.90
45096;DHT22;30858;51.108;8.068;2023-05-07T08:54:24;19.50;99.90
45096;DHT22;30858;51.108;8.068;2023-05-07T08:56:51;19.30;99.90
45096;DHT22;30858;51.108;8.068;2023-05-07T08:59:17;19.70;99.90
45096;DHT22;30858;51.108;8.068;2023-05-07T09:01:42;20.30;99.90
45096;DHT22;30858;51.108;8.068;2023-05-07T09:04:08;20.20;99.90
45096;DHT22;30858;51.108;8.068;2023-05-07T09:06:34;20.20;99.90
45096;DHT22;30858;51.108;8.068;2023-05-07T09:09:00;20.40;99.90
45096;DHT22;30858;51.108;8.068;2023-05-07T09:11:26;20.50;99.90
45096;DHT22;30858;51.108;8.068;2023-05-07T09:13:56;20.60;99.90
45096;DHT22;30858;51.108;8.068;2023-05-07T09:16:23;20.90;99.90
45096;DHT22;30858;51.108;8.068;2023-05-07T09:18:51;20.80;99.90
45096;DHT22;30858;51.108;8.068;2023-05-07T09:21:18;20.80;99.90
45096;DHT22;30858;51.108;8.068;2023-05-07T09:23:44;20.80;99.90
45096;DHT22;30858;51.108;8.068;2023-05-07T09:26:09;20.70;99.90
45096;DHT22;30858;51.108;8.068;2023-05-07T09:28:43;20.60;99.90
45096;DHT22;30858;51.108;8.068;2023-05-07T09:31:10;20.80;99.90
45096;DHT22;30858;51.108;8.068;2023-05-07T09:33:37;20.80;99.90
45096;DHT22;30858;51.108;8.068;2023-05-07T09:36:04;20.60;99.90
45096;DHT22;30858;51.108;8.068;2023-05-07T09:38:30;20.50;99.90
45096;DHT22;30858;51.108;8.068;2023-05-07T09:41:07;20.90;99.90
45096;DHT22;30858;51.108;8.068;2023-05-07T09:43:37;20.60;99.90
45096;DHT22;30858;51.108;8.068;2023-05-07T09:46:12;20.70;99.90
45096;DHT22;30858;51.108;8.068;2023-05-07T09:48:39;20.90;99.90
45096;DHT22;30858;51.108;8.068;2023-05-07T09:51:29;21.20;99.90
45096;DHT22;30858;51.108;8.068;2023-05-07T09:53:56;21.80;99.90
45096;DHT22;30858;51.108;8.068;2023-05-07T09:56:22;21.80;99.90
45096;DHT22;30858;51.108;8.068;2023-05-07T09:58:49;20.90;99.90
45096;DHT22;30858;51.108;8.068;2023-05-07T10:01:17;20.90;99.90
45096;DHT22;30858;51.108;8.068;2023-05-07T10:03:44;21.00;99.90
45096;DHT22;30858;51.108;8.068;2023-05-07T10:06:12;20.70;99.90
45096;DHT22;30858;51.108;8.068;2023-05-07T10:08:38;20.60;99.90
45096;DHT22;30858;51.108;8.068;2023-05-07T10:11:05;21.00;99.90
45096;DHT22;30858;51.108;8.068;2023-05-07T10:13:33;21.70;99.90
45096;DHT22;30858;51.108;8.068;2023-05-07T10:16:04;21.80;99.90
45096;DHT22;30858;51.108;8.068;2023-05-07T10:18:31;22.10;99.90
45096;DHT22;30858;51.108;8.068;2023-05-07T10:21:04;21.80;99.90
45096;DHT22;30858;51.108;8.068;2023-05-07T10:23:32;21.80;99.90
45096;DHT22;30858;51.108;8.068;2023-05-07T10:25:59;22.00;99.90
45096;DHT22;30858;51.108;8.068;2023-05-07T10:28:27;21.90;99.90
45096;DHT22;30858;51.108;8.068;2023-05-07T10:31:11;22.10;99.90
45096;DHT22;30858;51.108;8.068;2023-05-07T10:33:40;21.90;99.90
45096;DHT22;30858;51.108;8.068;2023-05-07T10:36:06;22.20;99.90
45096;DHT22;30858;51.108;8.068;2023-05-07T10:38:33;21.70;99.90
45096;DHT22;30858;51.108;8.068;2023-05-07T10:40:58;21.90;99.90
45096;DHT22;30858;51.108;8.068;2023-05-07T10:43:24;21.20;99.90
45096;DHT22;30858;51.108;8.068;2023-05-07T10:46:18;21.40;99.90
45096;DHT22;30858;51.108;8.068;2023-05-07T10:51:30;22.20;99.90
45096;DHT22;30858;51.108;8.068;2023-05-07T10:56:38;22.40;99.90
45096;DHT22;30858;51.108;8.068;2023-05-07T11:01:56;22.60;99.90
45096;DHT22;30858;51.108;8.068;2023-05-07T11:04:23;22.70;99.90
45096;DHT22;30858;51.108;8.068;2023-05-07T11:07:25;22.60;99.90
45096;DHT22;30858;51.108;8.068;2023-05-07T11:13:02;21.80;99.90
45096;DHT22;30858;51.108;8.068;2023-05-07T11:15:10;21.90;99.90
45096;DHT22;30858;51.108;8.068;2023-05-07T11:17:55;22.50;99.90
45096;DHT22;30858;51.108;8.068;2023-05-07T11:20:21;22.90;99.90
45096;DHT22;30858;51.108;8.068;2023-05-07T11:23:12;22.10;99.90
45096;DHT22;30858;51.108;8.068;2023-05-07T11:26:08;21.80;99.90
45096;DHT22;30858;51.108;8.068;2023-05-07T11:28:38;21.10;99.90
45096;DHT22;30858;51.108;8.068;2023-05-07T11:31:04;20.90;99.90
45096;DHT22;30858;51.108;8.068;2023-05-07T11:33:31;21.00;99.90
45096;DHT22;30858;51.108;8.068;2023-05-07T11:35:57;21.20;99.90
45096;DHT22;30858;51.108;8.068;2023-05-07T11:38:22;21.30;99.90
45096;DHT22;30858;51.108;8.068;2023-05-07T11:40:52;21.10;99.90
45096;DHT22;30858;51.108;8.068;2023-05-07T11:43:18;21.00;99.90
45096;DHT22;30858;51.108;8.068;2023-05-07T11:45:45;20.90;99.90
45096;DHT22;30858;51.108;8.068;2023-05-07T11:48:12;20.80;99.90
45096;DHT22;30858;51.108;8.068;2023-05-07T11:50:53;20.50;99.90
45096;DHT22;30858;51.108;8.068;2023-05-07T11:53:19;20.40;99.90
45096;DHT22;30858;51.108;8.068;2023-05-07T11:55:45;20.30;99.90
45096;DHT22;30858;51.108;8.068;2023-05-07T11:58:12;20.00;99.90
45096;DHT22;30858;51.108;8.068;2023-05-07T12:00:52;19.50;99.90
45096;DHT22;30858;51.108;8.068;2023-05-07T12:03:18;19.40;99.90
45096;DHT22;30858;51.108;8.068;2023-05-07T12:05:45;19.30;99.90
45096;DHT22;30858;51.108;8.068;2023-05-07T12:08:18;19.00;99.90
45096;DHT22;30858;51.108;8.068;2023-05-07T12:10:44;18.70;99.90
45096;DHT22;30858;51.108;8.068;2023-05-07T12:13:17;18.50;99.90
45096;DHT22;30858;51.108;8.068;2023-05-07T12:15:43;18.30;99.90
45096;DHT22;30858;51.108;8.068;2023-05-07T12:18:11;18.10;99.90
45096;DHT22;30858;51.108;8.068;2023-05-07T12:20:37;18.10;99.90
45096;DHT22;30858;51.108;8.068;2023-05-07T12:23:03;18.00;99.90
45096;DHT22;30858;51.108;8.068;2023-05-07T12:25:34;18.00;99.90
45096;DHT22;30858;51.108;8.068;2023-05-07T12:28:00;17.90;99.90
45096;DHT22;30858;51.108;8.068;2023-05-07T12:30:26;17.90;99.90
45096;DHT22;30858;51.108;8.068;2023-05-07T12:32:55;17.90;99.90
45096;DHT22;30858;51.108;8.068;2023-05-07T12:35:31;17.90;99.90
45096;DHT22;30858;51.108;8.068;2023-05-07T12:37:57;18.00;99.90
45096;DHT22;30858;51.108;8.068;2023-05-07T12:40:35;18.00;99.90
45096;DHT22;30858;51.108;8.068;2023-05-07T12:43:00;17.90;99.90
45096;DHT22;30858;51.108;8.068;2023-05-07T12:45:26;17.90;99.90
45096;DHT22;30858;51.108;8.068;2023-05-07T12:47:52;17.80;99.90
45096;DHT22;30858;51.108;8.068;2023-05-07T12:50:17;17.70;99.90
45096;DHT22;30858;51.108;8.068;2023-05-07T12:52:45;17.50;99.90
45096;DHT22;30858;51.108;8.068;2023-05-07T12:55:14;17.30;99.90
45096;DHT22;30858;51.108;8.068;2023-05-07T12:57:42;17.20;99.90
45096;DHT22;30858;51.108;8.068;2023-05-07T13:00:08;17.10;99.90
45096;DHT22;30858;51.108;8.068;2023-05-07T13:02:37;17.00;99.90
45096;DHT22;30858;51.108;8.068;2023-05-07T13:05:03;16.80;99.90
45096;DHT22;30858;51.108;8.068;2023-05-07T13:07:29;16.60;99.90
45096;DHT22;30858;51.108;8.068;2023-05-07T13:09:54;16.50;99.90
45096;DHT22;30858;51.108;8.068;2023-05-07T13:12:20;16.40;99.90
45096;DHT22;30858;51.108;8.068;2023-05-07T13:14:45;16.20;99.90
45096;DHT22;30858;51.108;8.068;2023-05-07T13:17:11;16.10;99.90
45096;DHT22;30858;51.108;8.068;2023-05-07T13:19:36;16.00;99.90
45096;DHT22;30858;51.108;8.068;2023-05-07T13:22:03;15.90;99.90
45096;DHT22;30858;51.108;8.068;2023-05-07T13:24:28;15.80;99.90
45096;DHT22;30858;51.108;8.068;2023-05-07T13:26:54;15.70;99.90
45096;DHT22;30858;51.108;8.068;2023-05-07T13:29:20;15.60;99.90
45096;DHT22;30858;51.108;8.068;2023-05-07T13:31:50;15.50;99.90
45096;DHT22;30858;51.108;8.068;2023-05-07T13:34:17;15.40;99.90
45096;DHT22;30858;51.108;8.068;2023-05-07T13:36:42;15.40;99.90
45096;DHT22;30858;51.108;8.068;2023-05-07T13:39:08;15.30;99.90
45096;DHT22;30858;51.108;8.068;2023-05-07T13:41:34;15.30;99.90
45096;DHT22;30858;51.108;8.068;2023-05-07T13:43:59;15.30;99.90
45096;DHT22;30858;51.108;8.068;2023-05-07T13:46:25;15.20;99.90
45096;DHT22;30858;51.108;8.068;2023-05-07T13:48:51;15.10;99.90
45096;DHT22;30858;51.108;8.068;2023-05-07T13:51:16;15.00;99.90
45096;DHT22;30858;51.108;8.068;2023-05-07T13:53:42;15.00;99.90
45096;DHT22;30858;51.108;8.068;2023-05-07T13:56:07;14.80;99.90
45096;DHT22;30858;51.108;8.068;2023-05-07T13:58:33;14.80;99.90
45096;DHT22;30858;51.108;8.068;2023-05-07T14:00:58;14.80;99.90
45096;DHT22;30858;51.108;8.068;2023-05-07T14:03:24;14.70;99.90
45096;DHT22;30858;51.108;8.068;2023-05-07T14:05:50;14.70;99.90
45096;DHT22;30858;51.108;8.068;2023-05-07T14:08:15;14.70;99.90
45096;DHT22;30858;51.108;8.068;2023-05-07T14:10:42;14.70;99.90
45096;DHT22;30858;51.108;8.068;2023-05-07T14:13:08;14.60;99.90
45096;DHT22;30858;51.108;8.068;2023-05-07T14:15:34;14.60;99.90
45096;DHT22;30858;51.108;8.068;2023-05-07T14:18:00;14.60;99.90
45096;DHT22;30858;51.108;8.068;2023-05-07T14:20:25;14.50;99.90
45096;DHT22;30858;51.108;8.068;2023-05-07T14:22:51;14.50;99.90
45096;DHT22;30858;51.108;8.068;2023-05-07T14:25:17;14.50;99.90
45096;DHT22;30858;51.108;8.068;2023-05-07T14:27:42;14.50;99.90
45096;DHT22;30858;51.108;8.068;2023-05-07T14:30:08;14.50;99.90
45096;DHT22;30858;51.108;8.068;2023-05-07T14:32:34;14.50;99.90
45096;DHT22;30858;51.108;8.068;2023-05-07T14:35:00;14.50;99.90
45096;DHT22;30858;51.108;8.068;2023-05-07T14:37:25;14.50;99.90
45096;DHT22;30858;51.108;8.068;2023-05-07T14:39:51;14.50;99.90
45096;DHT22;30858;51.108;8.068;2023-05-07T14:42:17;14.60;99.90
45096;DHT22;30858;51.108;8.068;2023-05-07T14:44:42;14.50;99.90
45096;DHT22;30858;51.108;8.068;2023-05-07T14:47:08;14.50;99.90
45096;DHT22;30858;51.108;8.068;2023-05-07T14:49:34;14.50;99.90
45096;DHT22;30858;51.108;8.068;2023-05-07T14:52:00;14.60;99.90
45096;DHT22;30858;51.108;8.068;2023-05-07T14:54:25;14.60;99.90
45096;DHT22;30858;51.108;8.068;2023-05-07T14:56:51;14.70;99.90
45096;DHT22;30858;51.108;8.068;2023-05-07T14:59:17;14.70;99.90
45096;DHT22;30858;51.108;8.068;2023-05-07T15:01:46;14.90;99.90
45096;DHT22;30858;51.108;8.068;2023-05-07T15:04:12;14.90;99.90
45096;DHT22;30858;51.108;8.068;2023-05-07T15:06:38;14.90;99.90
45096;DHT22;30858;51.108;8.068;2023-05-07T15:09:04;14.90;99.90
45096;DHT22;30858;51.108;8.068;2023-05-07T15:11:29;14.90;99.90
45096;DHT22;30858;51.108;8.068;2023-05-07T15:13:55;15.00;99.90
45096;DHT22;30858;51.108;8.068;2023-05-07T15:16:21;15.00;99.90
45096;DHT22;30858;51.108;8.068;2023-05-07T15:18:47;15.10;99.90
45096;DHT22;30858;51.108;8.068;2023-05-07T15:21:13;15.20;99.90
45096;DHT22;30858;51.108;8.068;2023-05-07T15:23:38;15.20;99.90
45096;DHT22;30858;51.108;8.068;2023-05-07T15:26:05;15.30;99.90
45096;DHT22;30858;51.108;8.068;2023-05-07T15:28:30;15.30;99.90
45096;DHT22;30858;51.108;8.068;2023-05-07T15:30:56;15.30;99.90
45096;DHT22;30858;51.108;8.068;2023-05-07T15:33:23;15.40;99.90
45096;DHT22;30858;51.108;8.068;2023-05-07T15:35:49;15.40;99.90
45096;DHT22;30858;51.108;8.068;2023-05-07T15:38:14;15.30;99.90